Time;durP1;ratioP1;P1;durP2;ratioP2;P2;SDS_P1;SDS_P2;PMS_P1;PMS_P2;Temp;Humidity;BMP_temperature;BMP_pressure;BME280_temperature;BME280_humidity;BME280_pressure;Samples;Min_cycle;Max_cycle;Signal;HPM_P1;HPM_P2
2023/08/04 00:00:13;;;;;;;15.35;3.20;;;;;;;16.09;100.00;101076.22;5026627;28;20030;-68
2023/08/04 00:02:39;;;;;;;11.88;3.08;;;;;;;16.07;100.00;101070.16;5027240;28;20025;-67
2023/08/04 00:05:05;;;;;;;11.40;3.20;;;;;;;16.06;100.00;101061.31;5025958;28;20026;-67
2023/08/04 00:07:32;;;;;;;12.05;3.13;;;;;;;16.05;100.00;101070.22;5026486;28;20033;-66
2023/08/04 00:09:57;;;;;;;14.00;2.80;;;;;;;16.07;100.00;101070.97;5027369;28;20591;-68
2023/08/04 00:12:23;;;;;;;12.88;3.05;;;;;;;16.04;100.00;101074.69;5023601;28;20037;-65
2023/08/04 00:14:48;;;;;;;13.43;3.13;;;;;;;15.97;100.00;101067.97;4988431;28;1132191;-66
2023/08/04 00:17:14;;;;;;;11.95;2.70;;;;;;;15.98;100.00;101075.00;5026835;28;20033;-68
2023/08/04 00:19:40;;;;;;;14.32;3.50;;;;;;;16.00;100.00;101067.81;5027581;28;20034;-68
2023/08/04 00:22:05;;;;;;;16.35;4.15;;;;;;;16.01;100.00;101073.97;5026722;28;20034;-69
2023/08/04 00:24:31;;;;;;;13.15;3.17;;;;;;;16.03;100.00;101066.78;5007792;28;21227;-66
2023/08/04 00:26:56;;;;;;;14.07;3.28;;;;;;;16.04;100.00;101069.34;5007212;28;20034;-64
2023/08/04 00:29:21;;;;;;;14.75;3.30;;;;;;;16.06;100.00;101066.63;5008095;28;20029;-66
2023/08/04 00:31:47;;;;;;;12.50;3.20;;;;;;;16.09;100.00;101065.59;5008506;28;20030;-67
2023/08/04 00:34:12;;;;;;;10.45;3.33;;;;;;;16.09;100.00;101068.25;5033655;28;20036;-68
2023/08/04 00:36:37;;;;;;;12.52;3.40;;;;;;;16.12;100.00;101065.44;5027893;28;20068;-66
2023/08/04 00:39:03;;;;;;;12.85;3.17;;;;;;;16.09;100.00;101066.47;5028539;28;20517;-68
2023/08/04 00:41:29;;;;;;;10.98;3.13;;;;;;;16.05;100.00;101070.22;5031651;28;20191;-66
2023/08/04 00:43:54;;;;;;;16.63;3.30;;;;;;;16.03;100.00;101069.44;5032670;28;20033;-68
2023/08/04 00:46:20;;;;;;;14.48;3.13;;;;;;;16.01;100.00;101071.31;5032390;28;20049;-67
2023/08/04 00:48:45;;;;;;;13.45;3.15;;;;;;;16.03;100.00;101074.75;5031200;28;20028;-67
2023/08/04 00:51:10;;;;;;;14.40;3.33;;;;;;;16.03;100.00;101074.75;5031445;28;20025;-67
2023/08/04 00:53:36;;;;;;;11.45;3.05;;;;;;;16.06;100.00;101076.38;5030749;28;20030;-64
2023/08/04 00:56:02;;;;;;;12.73;2.70;;;;;;;16.04;100.00;101079.13;5029188;28;20026;-68
2023/08/04 00:58:28;;;;;;;11.50;2.58;;;;;;;16.07;100.00;101081.63;5031410;28;20494;-68
2023/08/04 01:00:54;;;;;;;10.48;2.55;;;;;;;16.06;100.00;101082.56;5031347;28;20052;-67
2023/08/04 01:03:19;;;;;;;15.52;3.33;;;;;;;16.05;100.00;101083.53;5032068;28;20076;-68
2023/08/04 01:05:56;;;;;;;12.27;2.92;;;;;;;16.07;100.00;101094.06;5110033;22;20044;-63
2023/08/04 01:08:30;;;;;;;10.20;3.13;;;;;;;16.10;100.00;101089.44;4986477;28;20050;-63
2023/08/04 01:11:01;;;;;;;13.68;3.38;;;;;;;16.12;100.00;101086.69;4990318;28;20022;-66
2023/08/04 01:13:28;;;;;;;21.08;3.70;;;;;;;16.16;100.00;101086.44;4990083;28;20402;-68
2023/08/04 01:15:54;;;;;;;11.00;3.08;;;;;;;16.22;100.00;101087.06;4990433;28;20034;-66
2023/08/04 01:18:21;;;;;;;17.55;3.45;;;;;;;16.27;100.00;101091.19;4989708;28;20220;-67
2023/08/04 01:20:47;;;;;;;11.75;3.38;;;;;;;16.26;100.00;101091.28;4991223;28;20019;-67
2023/08/04 01:23:13;;;;;;;14.10;3.15;;;;;;;16.33;100.00;101086.47;4989983;28;20117;-62
2023/08/04 01:25:38;;;;;;;16.27;2.97;;;;;;;16.39;100.00;101087.00;4989239;28;20027;-69
2023/08/04 01:28:17;;;;;;;7.55;2.38;;;;;;;16.41;100.00;101092.25;4990428;28;20117;-65
2023/08/04 01:30:47;;;;;;;18.40;3.38;;;;;;;16.44;100.00;101091.22;4991061;28;20096;-66
2023/08/04 01:33:16;;;;;;;11.63;3.05;;;;;;;16.46;100.00;101089.34;4990035;28;20034;-65
2023/08/04 01:35:42;;;;;;;10.95;2.83;;;;;;;16.48;100.00;101095.41;4988519;28;20121;-65
2023/08/04 01:38:11;;;;;;;10.32;3.42;;;;;;;16.50;100.00;101090.88;4991195;28;20022;-67
2023/08/04 01:40:37;;;;;;;13.15;2.70;;;;;;;16.51;100.00;101103.22;4990062;28;20523;-66
2023/08/04 01:43:04;;;;;;;9.50;3.38;;;;;;;16.49;100.00;101094.47;4990603;28;20045;-67
2023/08/04 01:45:29;;;;;;;11.27;3.17;;;;;;;16.50;100.00;101089.06;4990211;28;20026;-66
2023/08/04 01:47:54;;;;;;;10.20;3.15;;;;;;;16.53;100.00;101096.03;4991475;28;20033;-67
2023/08/04 01:50:20;;;;;;;16.08;3.20;;;;;;;16.51;100.00;101089.94;5005511;28;20054;-67
2023/08/04 01:52:45;;;;;;;10.23;2.92;;;;;;;16.48;100.00;101098.94;4985518;28;20030;-69
2023/08/04 01:55:10;;;;;;;14.95;2.83;;;;;;;16.45;100.00;101098.25;4984780;28;20117;-65
2023/08/04 01:57:36;;;;;;;12.02;3.00;;;;;;;16.41;100.00;101102.88;4990316;28;20113;-67
2023/08/04 02:00:02;;;;;;;14.88;3.78;;;;;;;16.37;100.00;101101.31;4990541;28;20031;-67
2023/08/04 02:02:28;;;;;;;8.93;3.00;;;;;;;16.37;100.00;101099.53;4990515;28;20096;-64
2023/08/04 02:04:53;;;;;;;15.32;3.67;;;;;;;16.36;100.00;101102.25;4990593;28;20030;-65
2023/08/04 02:07:18;;;;;;;15.77;3.20;;;;;;;16.30;100.00;101106.13;4990781;28;20050;-67
2023/08/04 02:09:44;;;;;;;17.45;3.65;;;;;;;16.25;100.00;101103.69;4990607;28;20026;-65
2023/08/04 02:12:10;;;;;;;14.23;3.25;;;;;;;16.27;100.00;101117.78;4989847;28;20044;-67
2023/08/04 02:14:35;;;;;;;8.40;3.30;;;;;;;16.21;100.00;101119.91;4989692;28;20069;-70
2023/08/04 02:17:01;;;;;;;16.25;3.88;;;;;;;16.19;100.00;101116.47;4990424;28;20026;-65
2023/08/04 02:19:26;;;;;;;11.57;3.40;;;;;;;16.17;100.00;101121.88;4990479;28;20499;-68
2023/08/04 02:21:51;;;;;;;14.70;3.55;;;;;;;16.16;100.00;101122.78;5005295;28;20026;-68
2023/08/04 02:24:17;;;;;;;12.45;3.55;;;;;;;16.08;100.00;101123.22;4990387;28;20041;-66
2023/08/04 02:26:46;;;;;;;9.80;3.55;;;;;;;16.07;100.00;101121.50;4989244;28;20037;-65
2023/08/04 02:29:12;;;;;;;9.63;3.50;;;;;;;15.98;100.00;101129.97;4989975;28;20022;-67
2023/08/04 02:31:38;;;;;;;13.80;3.92;;;;;;;15.89;100.00;101134.78;4989754;28;20068;-64
2023/08/04 02:34:03;;;;;;;11.50;3.50;;;;;;;15.87;100.00;101136.63;4990128;28;20026;-67
2023/08/04 02:36:29;;;;;;;11.45;3.15;;;;;;;15.80;100.00;101135.25;4989403;28;20116;-65
2023/08/04 02:38:54;;;;;;;7.57;3.20;;;;;;;15.67;100.00;101140.31;4989910;28;20039;-63
2023/08/04 02:41:19;;;;;;;11.60;3.25;;;;;;;15.60;100.00;101130.97;4989984;28;20029;-66
2023/08/04 02:43:45;;;;;;;16.00;4.00;;;;;;;15.49;100.00;101142.09;4989442;28;20532;-66
2023/08/04 02:46:11;;;;;;;10.38;2.90;;;;;;;15.42;100.00;101141.56;4989729;28;20033;-67
2023/08/04 02:48:37;;;;;;;10.57;2.92;;;;;;;15.35;100.00;101146.31;4989658;28;20486;-66
2023/08/04 02:51:10;;;;;;;10.77;3.03;;;;;;;15.32;100.00;101150.94;4989670;28;20176;-67
2023/08/04 02:53:39;;;;;;;9.70;3.40;;;;;;;15.30;100.00;101153.66;4977308;28;20026;-66
2023/08/04 02:56:12;;;;;;;10.63;4.03;;;;;;;15.23;100.00;101154.91;4989172;28;20443;-66
2023/08/04 02:58:38;;;;;;;12.10;3.65;;;;;;;15.16;100.00;101152.53;4989584;28;20028;-66
2023/08/04 03:01:03;;;;;;;8.82;3.35;;;;;;;15.13;100.00;101152.69;4989855;28;20031;-66
2023/08/04 03:03:29;;;;;;;8.40;3.67;;;;;;;15.11;100.00;101149.22;4988817;28;20015;-65
2023/08/04 03:05:58;;;;;;;9.30;3.72;;;;;;;15.09;100.00;101145.81;4988833;28;20037;-66
2023/08/04 03:08:24;;;;;;;11.55;3.67;;;;;;;15.11;100.00;101146.56;4989553;28;20027;-65
2023/08/04 03:10:49;;;;;;;10.20;3.47;;;;;;;15.12;100.00;101150.97;4989059;28;20134;-67
2023/08/04 03:13:15;;;;;;;12.15;3.92;;;;;;;15.18;100.00;101154.25;5003648;28;20041;-67
2023/08/04 03:15:40;;;;;;;8.15;3.50;;;;;;;15.16;100.00;101152.53;4989410;28;20031;-63
2023/08/04 03:18:05;;;;;;;12.40;3.58;;;;;;;15.16;100.00;101149.00;4989637;28;20610;-66
2023/08/04 03:20:39;;;;;;;6.82;3.28;;;;;;;15.15;100.00;101156.09;4985456;28;20026;-67
2023/08/04 03:23:05;;;;;;;13.38;4.15;;;;;;;15.18;100.00;101155.13;4989525;28;20109;-65
2023/08/04 03:25:31;;;;;;;9.20;3.67;;;;;;;15.23;100.00;101147.78;4988284;28;20030;-67
2023/08/04 03:27:56;;;;;;;10.68;3.53;;;;;;;15.31;100.00;101155.38;4989043;28;20026;-68
2023/08/04 03:30:22;;;;;;;15.65;3.47;;;;;;;15.45;100.00;101157.34;4987870;28;20042;-63
2023/08/04 03:32:47;;;;;;;9.75;3.13;;;;;;;15.59;100.00;101164.63;4989478;28;20447;-65
2023/08/04 03:35:13;;;;;;;10.10;3.53;;;;;;;15.71;100.00;101168.44;4988079;28;20084;-68
2023/08/04 03:37:39;;;;;;;10.93;3.50;;;;;;;15.83;100.00;101166.13;4988741;28;20073;-67
2023/08/04 03:40:05;;;;;;;10.05;3.28;;;;;;;15.90;100.00;101168.38;4988558;28;20034;-67
2023/08/04 03:42:30;;;;;;;6.57;3.00;;;;;;;15.98;100.00;101162.69;4988752;28;20092;-67
2023/08/04 03:44:56;;;;;;;7.97;3.78;;;;;;;15.97;100.00;101174.28;4988862;28;20026;-67
2023/08/04 03:47:21;;;;;;;6.95;2.92;;;;;;;16.02;100.00;101171.38;4970644;28;20495;-68
2023/08/04 03:49:47;;;;;;;7.78;3.20;;;;;;;16.05;100.00;101165.91;4969073;28;20078;-66
2023/08/04 03:52:13;;;;;;;13.23;3.70;;;;;;;16.09;100.00;101172.78;4984369;28;20030;-68
2023/08/04 03:54:38;;;;;;;7.85;3.47;;;;;;;16.21;100.00;101181.03;4987556;28;20033;-65
2023/08/04 03:57:04;;;;;;;5.50;3.13;;;;;;;16.24;100.00;101179.09;4988613;28;20384;-66
2023/08/04 03:59:29;;;;;;;7.97;3.05;;;;;;;16.24;100.00;101179.09;4988745;28;20030;-67
2023/08/04 04:01:54;;;;;;;7.55;3.40;;;;;;;16.25;100.00;101178.16;4988074;28;20479;-66
2023/08/04 04:04:20;;;;;;;7.25;3.28;;;;;;;16.26;100.00;101181.69;4989045;28;20057;-66
2023/08/04 04:06:45;;;;;;;6.78;3.47;;;;;;;16.28;100.00;101179.78;4987785;28;20046;-67
2023/08/04 04:09:11;;;;;;;7.45;3.60;;;;;;;16.30;100.00;101180.56;4988805;28;20113;-68
2023/08/04 04:11:36;;;;;;;4.93;3.13;;;;;;;16.31;100.00;101187.59;4987471;28;20102;-66
2023/08/04 04:14:02;;;;;;;6.10;2.90;;;;;;;16.31;100.00;101189.41;5002632;28;20088;-67
2023/08/04 04:16:29;;;;;;;4.97;3.22;;;;;;;16.33;100.00;101191.03;5007854;28;20050;-64
2023/08/04 04:18:55;;;;;;;6.88;3.47;;;;;;;16.29;100.00;101194.81;4968997;28;20034;-68
2023/08/04 04:21:20;;;;;;;9.32;3.20;;;;;;;16.30;100.00;101199.19;4969131;28;20516;-66
2023/08/04 04:23:46;;;;;;;7.15;3.17;;;;;;;16.34;100.00;101199.88;4968714;28;20861;-66
2023/08/04 04:26:11;;;;;;;7.55;3.47;;;;;;;16.34;100.00;101203.38;4968132;28;20735;-68
2023/08/04 04:28:36;;;;;;;6.57;2.70;;;;;;;16.37;100.00;101200.56;4976290;28;20080;-67
2023/08/04 04:31:05;;;;;;;11.13;3.10;;;;;;;16.34;100.00;101216.69;4987739;28;20023;-68
2023/08/04 04:33:30;;;;;;;4.53;2.47;;;;;;;16.33;100.00;101212.31;4986710;28;20057;-68
2023/08/04 04:35:55;;;;;;;8.48;3.10;;;;;;;16.37;100.00;101218.31;4987854;28;20308;-68
2023/08/04 04:38:21;;;;;;;7.30;2.55;;;;;;;16.34;100.00;101214.03;5002955;28;20034;-66
2023/08/04 04:41:00;;;;;;;5.55;3.25;;;;;;;16.35;100.00;101210.44;5002929;28;20124;-65
2023/08/04 04:43:26;;;;;;;6.70;2.95;;;;;;;16.36;100.00;101217.47;5007366;28;20026;-67
2023/08/04 04:45:51;;;;;;;4.47;2.55;;;;;;;16.38;100.00;101226.22;5006854;28;20030;-68
2023/08/04 04:48:18;;;;;;;7.82;3.00;;;;;;;16.37;100.00;101228.94;5008106;28;20026;-67
2023/08/04 04:50:43;;;;;;;6.60;2.53;;;;;;;16.41;100.00;101234.03;4991575;28;20095;-65
2023/08/04 04:53:09;;;;;;;9.02;2.90;;;;;;;16.44;100.00;101226.84;5001809;28;20034;-66
2023/08/04 04:55:35;;;;;;;9.07;2.50;;;;;;;16.46;100.00;101222.31;4986801;28;20053;-68
2023/08/04 04:58:00;;;;;;;11.05;3.05;;;;;;;16.49;100.00;101227.44;4987645;28;20034;-66
2023/08/04 05:00:26;;;;;;;10.35;3.10;;;;;;;16.52;100.00;101233.47;4987958;28;20026;-67
2023/08/04 05:02:51;;;;;;;4.25;2.88;;;;;;;16.57;100.00;101246.53;4987966;28;20033;-66
2023/08/04 05:05:16;;;;;;;5.55;3.08;;;;;;;16.58;100.00;101237.59;4988277;28;20073;-66
2023/08/04 05:07:42;;;;;;;8.13;3.25;;;;;;;16.62;100.00;101240.97;4987693;28;20054;-66
2023/08/04 05:10:08;;;;;;;8.10;3.25;;;;;;;16.65;100.00;101251.47;4987105;28;20109;-66
2023/08/04 05:12:33;;;;;;;7.53;3.20;;;;;;;16.72;100.00;101250.19;4987206;28;20042;-65
2023/08/04 05:14:59;;;;;;;7.50;3.10;;;;;;;16.71;100.00;101252.94;4988044;28;20061;-64
2023/08/04 05:17:24;;;;;;;5.70;2.67;;;;;;;16.72;100.00;101254.63;4987409;28;20646;-67
2023/08/04 05:19:49;;;;;;;4.55;2.50;;;;;;;16.80;100.00;101257.75;4984712;28;20456;-67
2023/08/04 05:22:15;;;;;;;4.93;2.63;;;;;;;16.84;100.00;101263.75;4976910;28;20026;-64
2023/08/04 05:24:40;;;;;;;6.57;2.90;;;;;;;16.89;100.00;101267.88;4977395;28;20014;-65
2023/08/04 05:27:05;;;;;;;4.97;2.53;;;;;;;16.90;100.00;101266.97;4985360;28;20022;-69
2023/08/04 05:29:31;;;;;;;7.93;3.40;;;;;;;16.98;100.00;101263.88;4979518;28;20027;-65
2023/08/04 05:31:56;;;;;;;10.25;3.20;;;;;;;16.97;100.00;101263.94;4982058;28;20034;-67
2023/08/04 05:34:21;;;;;;;9.77;2.63;;;;;;;16.87;100.00;101267.13;4980485;28;20037;-67
2023/08/04 05:36:47;;;;;;;7.88;2.72;;;;;;;16.89;100.00;101275.03;4975516;28;20058;-63
2023/08/04 05:39:12;;;;;;;4.65;2.65;;;;;;;16.97;100.00;101277.25;4986179;28;20038;-66
2023/08/04 05:41:37;;;;;;;6.47;2.42;;;;;;;16.97;100.00;101274.59;4978034;28;20471;-66
2023/08/04 05:44:03;;;;;;;6.03;2.10;;;;;;;17.02;100.00;101277.88;4983845;28;20069;-67
2023/08/04 05:46:29;;;;;;;3.28;2.20;;;;;;;17.00;100.00;101274.44;4990207;28;20471;-64
2023/08/04 05:48:54;;;;;;;5.70;2.55;;;;;;;17.01;100.00;101285.00;4987844;28;20046;-66
2023/08/04 05:51:19;;;;;;;3.22;1.83;;;;;;;17.10;100.00;101280.16;4989599;28;20035;-66
2023/08/04 05:53:45;;;;;;;5.30;1.92;;;;;;;17.15;100.00;101278.97;4988393;28;20030;-66
2023/08/04 05:56:10;;;;;;;3.38;2.28;;;;;;;17.11;100.00;101282.75;4988093;28;20510;-65
2023/08/04 05:58:36;;;;;;;3.22;2.10;;;;;;;17.08;100.00;101282.91;4980237;28;20529;-68
2023/08/04 06:01:01;;;;;;;4.30;2.10;;;;;;;17.11;100.00;101277.41;4973181;28;20054;-66
2023/08/04 06:03:26;;;;;;;3.67;2.25;;;;;;;17.12;100.00;101284.44;4980745;28;20438;-66
2023/08/04 06:05:52;;;;;;;5.10;1.85;;;;;;;17.28;100.00;101288.94;4983520;28;20045;-66
2023/08/04 06:08:17;;;;;;;4.07;1.95;;;;;;;17.30;100.00;101297.69;4977275;28;20491;-67
2023/08/04 06:10:43;;;;;;;3.33;2.10;;;;;;;17.35;100.00;101290.31;4978748;28;20030;-68
2023/08/04 06:13:08;;;;;;;9.10;2.70;;;;;;;17.27;100.00;101298.72;4979308;28;20069;-68
2023/08/04 06:15:33;;;;;;;5.70;2.28;;;;;;;17.36;100.00;101302.69;4984300;28;20037;-66
2023/08/04 06:17:59;;;;;;;5.20;2.30;;;;;;;17.43;100.00;101298.72;4989678;28;20022;-67
2023/08/04 06:20:24;;;;;;;5.80;2.50;;;;;;;17.42;100.00;101301.47;4987447;28;20027;-67
2023/08/04 06:22:50;;;;;;;4.60;2.15;;;;;;;17.66;100.00;101304.59;4964140;28;20038;-68
2023/08/04 06:25:15;;;;;;;9.52;2.70;;;;;;;17.77;100.00;101303.13;4987653;28;20113;-67
2023/08/04 06:27:41;;;;;;;8.98;2.35;;;;;;;17.88;100.00;101306.00;4997826;28;20466;-68
2023/08/04 06:30:07;;;;;;;4.20;2.17;;;;;;;18.03;100.00;101314.94;4980267;28;20023;-67
2023/08/04 06:32:32;;;;;;;5.47;2.42;;;;;;;18.11;100.00;101309.19;4977756;28;20022;-65
2023/08/04 06:34:58;;;;;;;7.57;2.00;;;;;;;18.23;100.00;101304.94;4994234;28;20417;-70
2023/08/04 06:37:24;;;;;;;8.23;2.60;;;;;;;18.34;100.00;101314.97;4972972;28;20082;-66
2023/08/04 06:39:49;;;;;;;8.13;2.15;;;;;;;18.39;100.00;101317.38;4975454;28;20011;-66
2023/08/04 06:42:15;;;;;;;5.78;2.10;;;;;;;18.44;100.00;101321.47;4978846;28;20154;-67
2023/08/04 06:44:41;;;;;;;3.92;2.30;;;;;;;18.53;100.00;101324.53;4989165;28;20053;-66
2023/08/04 06:47:06;;;;;;;4.47;2.05;;;;;;;18.61;100.00;101332.09;4979629;28;20023;-65
2023/08/04 06:49:32;;;;;;;6.03;1.90;;;;;;;18.68;100.00;101333.44;4978879;28;20126;-66
2023/08/04 06:51:57;;;;;;;7.03;2.15;;;;;;;18.76;100.00;101330.28;4979646;28;20313;-69
2023/08/04 06:54:22;;;;;;;4.05;1.80;;;;;;;18.84;100.00;101338.69;4978630;28;20250;-64
2023/08/04 06:56:48;;;;;;;6.22;2.05;;;;;;;18.86;100.00;101330.59;4977861;28;20387;-67
2023/08/04 06:59:13;;;;;;;5.68;1.85;;;;;;;18.88;100.00;101340.25;4979110;28;20030;-68
2023/08/04 07:01:38;;;;;;;5.75;2.00;;;;;;;18.86;100.00;101339.47;4983586;28;20034;-64
2023/08/04 07:04:04;;;;;;;6.57;1.92;;;;;;;18.87;100.00;101343.84;4980482;28;20096;-66
2023/08/04 07:06:29;;;;;;;9.90;2.00;;;;;;;18.82;100.00;101346.78;4976407;28;20054;-66
2023/08/04 07:08:55;;;;;;;8.73;1.90;;;;;;;18.74;100.00;101351.75;4984707;28;20045;-68
2023/08/04 07:11:20;;;;;;;15.10;2.20;;;;;;;18.66;100.00;101352.19;4983630;28;20105;-64
2023/08/04 07:13:46;;;;;;;9.80;1.80;;;;;;;18.84;100.00;101361.88;4981762;28;20333;-69
2023/08/04 07:16:11;;;;;;;11.38;2.30;;;;;;;18.93;100.00;101359.47;4988257;28;20026;-66
2023/08/04 07:18:37;;;;;;;9.15;2.17;;;;;;;18.96;100.00;101349.59;4976152;28;20030;-66
2023/08/04 07:21:07;;;;;;;5.72;1.75;;;;;;;19.08;100.00;101354.19;4980043;28;20026;-66
2023/08/04 07:23:33;;;;;;;8.57;2.50;;;;;;;19.10;100.00;101364.75;4969916;28;20031;-65
2023/08/04 07:25:58;;;;;;;7.38;2.25;;;;;;;19.10;100.00;101362.97;4972150;28;20157;-67
2023/08/04 07:28:23;;;;;;;9.10;1.75;;;;;;;19.19;100.00;101357.06;4976427;28;20022;-68
2023/08/04 07:30:49;;;;;;;8.73;2.13;;;;;;;19.18;100.00;101371.34;4989507;28;20030;-63
2023/08/04 07:33:14;;;;;;;14.05;2.70;;;;;;;19.21;100.00;101366.78;4988831;28;20073;-66
2023/08/04 07:35:39;;;;;;;6.65;2.08;;;;;;;19.42;100.00;101367.25;4988214;28;20066;-69
2023/08/04 07:38:05;;;;;;;8.45;2.60;;;;;;;19.48;100.00;101371.34;4989467;28;20058;-69
2023/08/04 07:40:30;;;;;;;12.32;2.30;;;;;;;19.63;100.00;101375.69;4986286;28;20363;-66
2023/08/04 07:42:55;;;;;;;11.68;2.45;;;;;;;19.39;100.00;101378.13;4989217;28;20165;-67
2023/08/04 07:45:21;;;;;;;10.43;2.35;;;;;;;19.58;100.00;101375.16;4988771;28;20364;-68
2023/08/04 07:47:46;;;;;;;7.10;2.45;;;;;;;19.63;100.00;101377.53;4987908;28;20117;-68
2023/08/04 07:50:11;;;;;;;9.40;2.65;;;;;;;19.50;100.00;101377.47;4988270;28;20073;-67
2023/08/04 07:52:37;;;;;;;10.95;2.17;;;;;;;19.56;100.00;101390.41;4986433;28;20022;-67
2023/08/04 07:55:02;;;;;;;11.00;2.20;;;;;;;19.63;100.00;101386.38;5003372;28;20030;-64
2023/08/04 07:57:28;;;;;;;10.65;2.03;;;;;;;19.98;100.00;101387.75;4987764;28;20502;-68
2023/08/04 07:59:54;;;;;;;9.75;2.15;;;;;;;20.48;100.00;101389.88;4989050;28;20121;-69
2023/08/04 08:02:19;;;;;;;4.40;1.63;;;;;;;20.52;100.00;101394.06;5000515;28;20117;-66
2023/08/04 08:04:44;;;;;;;12.52;2.10;;;;;;;20.26;100.00;101393.13;5007661;28;20058;-67
2023/08/04 08:07:10;;;;;;;12.70;2.13;;;;;;;19.98;100.00;101398.44;5001453;28;20039;-64
2023/08/04 08:09:35;;;;;;;7.90;2.03;;;;;;;19.85;100.00;101397.50;4987609;28;20503;-63
2023/08/04 08:12:00;;;;;;;10.88;1.60;;;;;;;19.89;100.00;101394.56;4988303;28;20445;-61
2023/08/04 08:14:26;;;;;;;13.43;1.95;;;;;;;19.77;100.00;101395.34;5001782;28;20045;-64
2023/08/04 08:16:51;;;;;;;8.55;2.05;;;;;;;19.67;100.00;101401.28;5008496;28;20030;-65
2023/08/04 08:19:17;;;;;;;9.07;2.08;;;;;;;19.55;100.00;101399.38;5001227;28;20030;-62
2023/08/04 08:21:42;;;;;;;7.25;1.45;;;;;;;19.53;100.00;101403.97;4988480;28;20483;-60
2023/08/04 08:24:08;;;;;;;7.00;1.67;;;;;;;19.52;100.00;101408.47;4983905;28;20049;-66
2023/08/04 08:26:33;;;;;;;11.65;2.03;;;;;;;19.28;100.00;101421.53;4983177;28;20030;-63
2023/08/04 08:28:59;;;;;;;6.18;1.83;;;;;;;19.27;100.00;101419.81;4988591;28;20340;-64
2023/08/04 08:31:24;;;;;;;6.70;1.40;;;;;;;19.30;100.00;101420.47;4994019;28;20105;-62
2023/08/04 08:33:50;;;;;;;7.53;1.52;;;;;;;19.18;100.00;101427.44;5008318;28;20073;-61
2023/08/04 08:36:17;;;;;;;5.45;1.77;;;;;;;19.39;100.00;101426.22;5007789;28;20030;-61
2023/08/04 08:38:43;;;;;;;8.15;2.15;;;;;;;19.38;100.00;101420.00;4989503;28;20426;-61
2023/08/04 08:41:11;;;;;;;8.57;1.50;;;;;;;19.66;100.00;101425.44;4987992;28;20493;-62
2023/08/04 08:43:36;;;;;;;8.93;2.30;;;;;;;19.94;100.00;101424.53;4986603;28;20026;-63
2023/08/04 08:46:02;;;;;;;10.20;1.83;;;;;;;20.22;100.00;101431.75;5008357;28;20041;-66
2023/08/04 08:48:29;;;;;;;7.65;1.77;;;;;;;20.48;100.00;101439.84;4999185;28;20462;-62
2023/08/04 08:51:00;;;;;;;9.98;1.70;;;;;;;20.58;100.00;101436.47;4985853;28;20026;-62
2023/08/04 08:53:29;;;;;;;8.13;1.60;;;;;;;20.53;100.00;101429.72;4983401;28;20027;-61
2023/08/04 08:55:55;;;;;;;7.72;1.95;;;;;;;20.84;100.00;101435.66;4981379;28;20033;-66
2023/08/04 08:58:21;;;;;;;4.10;1.65;;;;;;;20.92;100.00;101438.69;4976410;28;20027;-62
2023/08/04 09:00:46;;;;;;;5.40;1.40;;;;;;;21.11;100.00;101445.47;4997822;28;20505;-60
2023/08/04 09:03:12;;;;;;;7.82;1.23;;;;;;;20.99;100.00;101441.81;4989940;28;20111;-62
2023/08/04 09:05:37;;;;;;;4.32;1.08;;;;;;;20.89;100.00;101438.88;4983390;28;20027;-61
2023/08/04 09:08:03;;;;;;;7.47;1.60;;;;;;;20.88;100.00;101445.19;4974876;28;20280;-61
2023/08/04 09:10:28;;;;;;;5.50;1.63;;;;;;;20.73;100.00;101441.75;4981164;28;20026;-62
2023/08/04 09:12:56;;;;;;;5.35;1.13;;;;;;;20.60;100.00;101446.22;4990009;28;20030;-63
2023/08/04 09:15:35;;;;;;;5.50;1.33;;;;;;;20.42;100.00;101452.69;4982937;28;20105;-62
2023/08/04 09:18:05;;;;;;;2.00;1.02;;;;;;;20.53;100.00;101451.13;4971649;28;20023;-62
2023/08/04 09:20:31;;;;;;;3.42;1.15;;;;;;;20.58;100.00;101451.66;4970023;28;20036;-61
2023/08/04 09:22:56;;;;;;;4.68;1.52;;;;;;;20.66;100.00;101452.03;4977353;28;20030;-63
2023/08/04 09:25:22;;;;;;;4.50;1.25;;;;;;;20.67;100.00;101451.06;4971887;28;20026;-61
2023/08/04 09:27:50;;;;;;;4.15;1.33;;;;;;;20.77;100.00;101456.63;5000482;28;20046;-61
2023/08/04 09:30:17;;;;;;;8.65;1.50;;;;;;;20.70;100.00;101456.19;4990639;28;20041;-63
2023/08/04 09:32:43;;;;;;;8.38;1.23;;;;;;;20.90;100.00;101455.84;4988949;28;20046;-61
2023/08/04 09:35:09;;;;;;;6.93;1.42;;;;;;;21.04;100.00;101462.94;4988777;28;20030;-64
2023/08/04 09:37:36;;;;;;;2.75;1.20;;;;;;;21.19;100.00;101450.31;4989086;28;20513;-62
2023/08/04 09:40:04;;;;;;;6.78;1.33;;;;;;;21.41;100.00;101457.69;4988161;28;20058;-63
2023/08/04 09:42:29;;;;;;;4.95;1.20;;;;;;;21.65;100.00;101466.78;4988194;28;20023;-64
2023/08/04 09:44:55;;;;;;;4.88;1.25;;;;;;;21.34;100.00;101462.63;4986776;28;20030;-61
2023/08/04 09:47:25;;;;;;;7.95;1.40;;;;;;;21.19;100.00;101461.03;4984707;28;20026;-60
2023/08/04 09:49:51;;;;;;;7.78;1.63;;;;;;;21.33;100.00;101468.09;4987522;28;20023;-60
2023/08/04 09:52:23;;;;;;;5.75;1.35;;;;;;;21.23;100.00;101470.56;4986714;28;20022;-62
2023/08/04 09:54:53;;;;;;;6.00;1.65;;;;;;;21.08;100.00;101465.28;4979966;28;20023;-59
2023/08/04 09:57:19;;;;;;;9.57;1.60;;;;;;;20.92;100.00;101468.16;4979583;28;20411;-64
2023/08/04 09:59:46;;;;;;;4.80;1.23;;;;;;;21.14;100.00;101472.06;4983129;28;20022;-63
2023/08/04 10:02:13;;;;;;;3.22;1.20;;;;;;;21.21;100.00;101473.34;4983556;28;20027;-62
2023/08/04 10:04:38;;;;;;;5.57;1.25;;;;;;;21.53;100.00;101473.88;4989933;28;20455;-62
2023/08/04 10:07:04;;;;;;;7.70;1.23;;;;;;;21.84;100.00;101474.38;4973889;28;20434;-64
2023/08/04 10:09:31;;;;;;;4.75;1.38;;;;;;;21.61;100.00;101478.69;4980667;28;20030;-61
2023/08/04 10:11:58;;;;;;;2.60;1.00;;;;;;;21.21;100.00;101470.66;4973277;28;20492;-65
2023/08/04 10:14:23;;;;;;;3.20;1.30;;;;;;;20.95;100.00;101470.63;4987888;28;20390;-63
2023/08/04 10:16:49;;;;;;;5.45;1.10;;;;;;;20.69;100.00;101483.94;4985404;28;20030;-64
2023/08/04 10:19:18;;;;;;;4.15;1.02;;;;;;;21.01;100.00;101488.09;4991921;28;20062;-67
2023/08/04 10:21:43;;;;;;;4.03;0.88;;;;;;;21.11;100.00;101482.97;4986708;28;20053;-62
2023/08/04 10:24:10;;;;;;;5.72;1.02;;;;;;;21.14;100.00;101485.47;4989088;28;20109;-61
2023/08/04 10:26:48;;;;;;;2.70;0.80;;;;;;;20.95;100.00;101486.69;4981615;28;20050;-63
2023/08/04 10:29:13;;;;;;;1.50;0.70;;;;;;;21.31;100.00;101486.13;5006175;28;20113;-64
2023/08/04 10:31:55;;;;;;;1.73;0.80;;;;;;;21.61;98.10;101489.41;4989647;28;20113;-64
2023/08/04 10:34:33;;;;;;;1.30;0.70;;;;;;;21.67;95.17;101483.63;4990738;28;20034;-64
2023/08/04 10:37:06;;;;;;;3.67;1.10;;;;;;;21.64;95.72;101495.41;4989662;28;20023;-62
2023/08/04 10:39:33;;;;;;;5.55;1.10;;;;;;;21.68;96.14;101496.94;4988040;28;20026;-63
2023/08/04 10:42:00;;;;;;;1.27;0.60;;;;;;;21.77;96.54;101495.44;4990441;28;20023;-61
2023/08/04 10:44:30;;;;;;;2.30;1.00;;;;;;;22.04;97.61;101497.09;5003424;28;20030;-63
2023/08/04 10:47:00;;;;;;;3.03;0.88;;;;;;;22.09;94.53;101494.06;4989973;28;20034;-62
2023/08/04 10:49:26;;;;;;;1.52;0.80;;;;;;;22.06;94.07;101491.59;4989567;28;20062;-62
2023/08/04 10:51:52;;;;;;;3.67;0.88;;;;;;;22.36;96.08;101492.16;4989396;28;20138;-63
2023/08/04 10:54:18;;;;;;;3.28;0.80;;;;;;;22.13;97.66;101500.94;4989962;28;20378;-60
2023/08/04 10:56:45;;;;;;;2.97;0.63;;;;;;;21.82;98.63;101503.13;4988760;28;20045;-63
2023/08/04 10:59:10;;;;;;;2.75;0.80;;;;;;;21.42;100.00;101509.47;4990078;28;20026;-61
2023/08/04 11:01:36;;;;;;;1.50;0.80;;;;;;;21.90;96.47;101506.13;4988954;28;20383;-62
2023/08/04 11:04:01;;;;;;;4.45;0.82;;;;;;;22.15;95.67;101492.78;4989367;28;20165;-63
2023/08/04 11:06:27;;;;;;;2.40;0.75;;;;;;;22.29;96.02;101502.47;4988994;28;20029;-64
2023/08/04 11:08:52;;;;;;;1.58;0.63;;;;;;;22.30;96.98;101507.75;4987854;28;20049;-61